Perth Airport Weather

Latest weather

Perth Scone (EGPT) Weather updates coming soon.

Below are some surrounding airfields, alternative you can view our webcam below or contact Perth radio operator who can assist.

Dundee Weather - Distance 12nm Track 086'

[Source: ADDS]
METAR
EGPN 171700Z 1718/1721 21005KT 9999 FEW015 SCT030 PROB40 TEMPO 1718/1721 5000 RA BKN009 TAF
EGPN 171700Z 1718/1721 21005KT 9999 FEW015 SCT030 PROB40 TEMPO 1718/1721 5000 RA BKN009 =

RAF Leuchars Weather - Distance 17nm Track 103'

[Source: ADDS]
METAR
EGQL 180250Z AUTO 26009KT 9999 OVC060/// 14/11 Q1012 =
EGQL 180114Z 1803/1812 24008KT 9999 BKN045 PROB30 TEMPO 1803/1809 3000 BR SCT005
TAF
EGQL 180114Z 1803/1812 24008KT 9999 BKN045 PROB30 TEMPO 1803/1809 3000 BR SCT005 =

Edinburgh Weather - Distance 29nm Track 180'

[Source: ADDS]
METAR
EGPH 180320Z 24005KT CAVOK 13/12 Q1012 =
AMD EGPH 172358Z 1800/1824 23005KT 9999 SCT030 PROB30 TEMPO 1800/1802 8000 -RA BKN012 PROB30 TEMPO 1802/1809 7000 BKN004 BECMG 1812/1815 06010KT TEMPO 1817/1824 6000 -RA BKN008 PROB40 TEMPO 1818/1824 3000 RADZ BKN004 BECMG 1821/1824 29004KT
TAF
AMD EGPH 172358Z 1800/1824 23005KT 9999 SCT030 PROB30 TEMPO 1800/1802 8000 -RA BKN012 PROB30 TEMPO 1802/1809 7000 BKN004 BECMG 1812/1815 06010KT TEMPO 1817/1824 6000 -RA BKN008 PROB40 TEMPO 1818/1824 3000 RADZ BKN004 BECMG 1821/1824 29004KT =

Aberdeen Weather - Distance 60nm Track 040'

[Source: ADDS]
METAR
EGPD 180320Z AUTO 01004KT 340V050 9999 SCT006 OVC020 13/13 Q1012 TEMPO BKN006 =
AMD EGPD 180118Z 1801/1824 36003KT 9999 BKN026 TEMPO 1801/1810 6000 -RADZ BKN009 PROB40 TEMPO 1801/1809 2500 +RA RADZ BR BKN004 PROB40 TEMPO 1810/1820 8000 BKN008 BECMG 1812/1815 14010KT BECMG 1820/1823 BKN008 TEMPO 1820/1824 5000 RADZ BKN005 PROB40 TEMPO 1821/1824 2500 BR BKN002
TAF
AMD EGPD 180118Z 1801/1824 36003KT 9999 BKN026 TEMPO 1801/1810 6000 -RADZ BKN009 PROB40 TEMPO 1801/1809 2500 +RA RADZ BR BKN004 PROB40 TEMPO 1810/1820 8000 BKN008 BECMG 1812/1815 14010KT BECMG 1820/1823 BKN008 TEMPO 1820/1824 5000 RADZ BKN005 PROB40 TEMPO 1821/1824 2500 BR BKN002 =

Drone Tour of Perth Airport

Watch a full aerial tour of the Perth Airport runways 15/33, 09/27, 03/21. Follow our based Piper PA28-161 Warrior taking you on a tour of Perth Scone Aerodrome. The footage is captured in stunning 4K quality by the DJI Mavic Drone.
Morris Leslie Group Logo
ACS Engineering
Scotland's Charity Air Ambulance Logo
Air Service Training Logo

Get started with your first flight lesson with ACS Flight Training

Copyright 2021. ACS Aviation - Website designed by Xtensive